Time;durP1;ratioP1;P1;durP2;ratioP2;P2;SDS_P1;SDS_P2;PMS_P1;PMS_P2;Temp;Humidity;BMP_temperature;BMP_pressure;BME280_temperature;BME280_humidity;BME280_pressure;Samples;Min_cycle;Max_cycle;Signal;HPM_P1;HPM_P2
2023/05/18 00:02:20;;;;;;;6.32;3.80;;;13.80;99.90;;;;;;5051019;28;20409;-72
2023/05/18 00:04:46;;;;;;;8.15;4.13;;;13.80;99.90;;;;;;5051092;28;20062;-72
2023/05/18 00:07:13;;;;;;;9.57;3.75;;;13.80;99.90;;;;;;5050287;28;20028;-72
2023/05/18 00:09:40;;;;;;;5.97;3.33;;;13.70;99.90;;;;;;5050645;28;20107;-72
2023/05/18 00:12:07;;;;;;;7.72;3.78;;;13.80;99.90;;;;;;5050467;28;20029;-73
2023/05/18 00:14:33;;;;;;;9.40;4.05;;;13.70;99.90;;;;;;5050711;28;20109;-72
2023/05/18 00:17:02;;;;;;;8.25;3.88;;;13.80;99.90;;;;;;5050421;28;20071;-73
2023/05/18 00:19:28;;;;;;;6.65;3.50;;;13.70;99.90;;;;;;5050892;28;20355;-73
2023/05/18 00:21:55;;;;;;;5.72;3.25;;;13.70;99.90;;;;;;5050768;28;20075;-73
2023/05/18 00:24:21;;;;;;;9.00;3.50;;;13.60;99.90;;;;;;5051167;28;20025;-73
2023/05/18 00:26:50;;;;;;;6.60;3.35;;;13.60;99.90;;;;;;5051031;28;20113;-73
2023/05/18 00:29:16;;;;;;;8.27;3.08;;;13.60;99.90;;;;;;5049687;28;20116;-73
2023/05/18 00:31:44;;;;;;;5.43;3.35;;;13.60;99.90;;;;;;5051034;28;20136;-72
2023/05/18 00:34:11;;;;;;;5.32;2.72;;;13.60;99.90;;;;;;5050193;28;20382;-73
2023/05/18 00:36:38;;;;;;;7.55;3.35;;;13.60;99.90;;;;;;5050667;28;20054;-72
2023/05/18 00:39:05;;;;;;;7.63;2.95;;;13.60;99.90;;;;;;5049861;28;20033;-73
2023/05/18 00:41:31;;;;;;;4.45;2.70;;;13.50;99.90;;;;;;5050553;28;20064;-73
2023/05/18 00:43:58;;;;;;;8.30;2.92;;;13.50;99.90;;;;;;5049981;28;20033;-73
2023/05/18 00:46:25;;;;;;;7.65;3.53;;;13.30;99.90;;;;;;5050283;28;20021;-73
2023/05/18 00:48:52;;;;;;;9.23;3.55;;;13.30;99.90;;;;;;5049952;28;20447;-72
2023/05/18 00:51:22;;;;;;;7.03;3.90;;;13.30;99.90;;;;;;5050044;28;20036;-72
2023/05/18 00:53:51;;;;;;;7.10;3.13;;;13.30;99.90;;;;;;5050195;28;20127;-72
2023/05/18 00:56:18;;;;;;;5.85;2.83;;;13.30;99.90;;;;;;5050244;28;20040;-74
2023/05/18 00:58:44;;;;;;;5.47;3.15;;;13.30;99.90;;;;;;5050290;28;20098;-72
2023/05/18 01:01:10;;;;;;;4.88;3.10;;;13.20;99.90;;;;;;5049956;28;20124;-73
2023/05/18 01:03:37;;;;;;;8.35;3.63;;;13.20;99.90;;;;;;5050519;28;20108;-73
2023/05/18 01:06:08;;;;;;;6.78;3.05;;;13.10;99.90;;;;;;5049942;28;20108;-73
2023/05/18 01:08:35;;;;;;;5.30;3.17;;;13.10;99.90;;;;;;5050127;28;20466;-73
2023/05/18 01:11:08;;;;;;;6.50;3.45;;;13.10;99.90;;;;;;5050248;28;20037;-73
2023/05/18 01:13:50;;;;;;;9.48;3.67;;;13.00;99.90;;;;;;5050489;28;20071;-73
2023/05/18 01:16:27;;;;;;;7.00;3.15;;;13.00;99.90;;;;;;5050056;28;20446;-72
2023/05/18 01:19:06;;;;;;;6.45;2.85;;;13.00;99.90;;;;;;5050000;28;20063;-72
2023/05/18 01:21:53;;;;;;;3.25;2.60;;;13.10;99.90;;;;;;5032137;28;20429;-72
2023/05/18 01:24:41;;;;;;;6.82;3.42;;;13.00;99.90;;;;;;5049480;28;20109;-72
2023/05/18 01:27:08;;;;;;;5.45;3.17;;;13.00;99.90;;;;;;5049776;28;20029;-72
2023/05/18 01:29:34;;;;;;;3.25;2.42;;;12.90;99.90;;;;;;5049491;28;20454;-72
2023/05/18 01:32:00;;;;;;;8.90;3.22;;;12.90;99.90;;;;;;5051823;28;20051;-73
2023/05/18 01:34:26;;;;;;;4.68;2.80;;;12.90;99.90;;;;;;5053773;28;20425;-72
2023/05/18 01:36:52;;;;;;;5.60;3.08;;;12.80;99.90;;;;;;5053549;28;20021;-72
2023/05/18 01:39:18;;;;;;;9.93;3.40;;;12.80;99.90;;;;;;5053050;28;20408;-71
2023/05/18 01:42:10;;;;;;;11.63;4.22;;;12.80;99.90;;;;;;5053436;28;20025;-71
2023/05/18 01:44:43;;;;;;;5.93;2.72;;;12.80;99.90;;;;;;5053154;28;20025;-72
2023/05/18 01:47:14;;;;;;;5.35;3.08;;;12.70;99.90;;;;;;5052914;28;20448;-72
2023/05/18 01:49:59;;;;;;;7.90;3.00;;;12.70;99.90;;;;;;5053430;28;20032;-71
2023/05/18 01:52:29;;;;;;;6.82;3.75;;;12.70;99.90;;;;;;5053480;28;20516;-71
2023/05/18 01:54:59;;;;;;;5.68;3.00;;;12.70;99.90;;;;;;5053065;28;20045;-71
2023/05/18 01:57:28;;;;;;;9.25;3.65;;;12.60;99.90;;;;;;5053304;28;20037;-72
2023/05/18 01:59:54;;;;;;;6.32;3.47;;;12.60;99.90;;;;;;5053109;28;20112;-72
2023/05/18 02:02:20;;;;;;;6.07;3.08;;;12.60;99.90;;;;;;5052798;28;20047;-71
2023/05/18 02:04:46;;;;;;;6.50;3.13;;;12.60;99.90;;;;;;5053175;28;20025;-72
2023/05/18 02:07:12;;;;;;;6.78;3.40;;;12.60;99.90;;;;;;5052818;28;20025;-72
2023/05/18 02:09:37;;;;;;;7.38;3.03;;;12.60;99.90;;;;;;5052772;28;20386;-72
2023/05/18 02:12:03;;;;;;;6.57;3.40;;;12.50;99.90;;;;;;5052142;28;20469;-72
2023/05/18 02:14:29;;;;;;;8.18;3.50;;;12.50;99.90;;;;;;5052558;28;20052;-72
2023/05/18 02:16:56;;;;;;;5.40;2.90;;;12.50;99.90;;;;;;5052710;28;20442;-72
2023/05/18 02:19:22;;;;;;;8.40;3.33;;;12.50;99.90;;;;;;5051897;28;20267;-72
2023/05/18 02:21:47;;;;;;;8.30;3.40;;;12.50;99.90;;;;;;5052140;28;20021;-72
2023/05/18 02:24:13;;;;;;;5.70;3.13;;;12.50;99.90;;;;;;5051966;28;20064;-72
2023/05/18 02:26:40;;;;;;;6.95;3.53;;;12.60;99.90;;;;;;5052343;28;20429;-73
2023/05/18 02:29:08;;;;;;;5.13;3.20;;;12.60;99.90;;;;;;5051869;28;20033;-74
2023/05/18 02:31:34;;;;;;;10.50;3.92;;;12.60;99.90;;;;;;5052024;28;20156;-73
2023/05/18 02:34:00;;;;;;;7.00;3.40;;;12.60;99.90;;;;;;5052271;28;20123;-73
2023/05/18 02:36:26;;;;;;;7.07;3.47;;;12.60;99.90;;;;;;5051817;28;20129;-71
2023/05/18 02:38:52;;;;;;;7.50;3.53;;;12.50;99.90;;;;;;5052318;28;20028;-71
2023/05/18 02:41:17;;;;;;;6.68;3.90;;;12.60;99.90;;;;;;5033782;28;20100;-72
2023/05/18 02:43:43;;;;;;;7.00;3.78;;;12.60;99.90;;;;;;5050768;28;20502;-71
2023/05/18 02:46:09;;;;;;;6.97;3.30;;;12.60;99.90;;;;;;5051852;28;20059;-71
2023/05/18 02:48:34;;;;;;;4.88;3.60;;;12.50;99.90;;;;;;5051935;28;20382;-71
2023/05/18 02:51:00;;;;;;;7.03;3.20;;;12.50;99.90;;;;;;5051743;28;20025;-71
2023/05/18 02:53:26;;;;;;;6.10;3.28;;;12.50;99.90;;;;;;5051365;28;20022;-71
2023/05/18 02:56:02;;;;;;;7.50;3.63;;;12.50;99.90;;;;;;5051860;28;20036;-72
2023/05/18 02:58:27;;;;;;;7.55;3.55;;;12.50;99.90;;;;;;5051753;28;20039;-72
2023/05/18 03:00:59;;;;;;;6.60;3.10;;;12.40;99.90;;;;;;5051586;28;20029;-72
2023/05/18 03:03:24;;;;;;;7.65;3.00;;;12.40;99.90;;;;;;5051579;28;20633;-72
2023/05/18 03:05:53;;;;;;;5.05;2.95;;;12.30;99.90;;;;;;5051928;28;20111;-71
2023/05/18 03:08:21;;;;;;;5.70;3.10;;;12.30;99.90;;;;;;5051154;28;20036;-72
2023/05/18 03:10:47;;;;;;;7.75;3.47;;;12.30;99.90;;;;;;5051883;28;20021;-72
2023/05/18 03:13:13;;;;;;;11.70;4.22;;;12.20;99.90;;;;;;5051255;28;20025;-72
2023/05/18 03:15:40;;;;;;;4.38;3.33;;;12.30;99.90;;;;;;5051793;28;20155;-73
2023/05/18 03:18:05;;;;;;;6.00;3.38;;;12.20;99.90;;;;;;5051518;28;20029;-75
2023/05/18 03:20:32;;;;;;;8.40;3.50;;;12.20;99.90;;;;;;5051955;28;20025;-73
2023/05/18 03:22:57;;;;;;;7.10;3.47;;;12.20;99.90;;;;;;5051623;28;20367;-72
2023/05/18 03:25:24;;;;;;;8.13;3.20;;;12.30;99.90;;;;;;5050887;28;20036;-73
2023/05/18 03:27:53;;;;;;;8.93;3.40;;;12.20;99.90;;;;;;5051095;28;20044;-72
2023/05/18 03:30:19;;;;;;;9.35;4.05;;;12.20;99.90;;;;;;5050784;28;20060;-73
2023/05/18 03:32:46;;;;;;;7.00;3.67;;;12.20;99.90;;;;;;5051135;28;20021;-72
2023/05/18 03:35:12;;;;;;;8.63;3.60;;;12.30;99.90;;;;;;5050920;28;20063;-73
2023/05/18 03:37:38;;;;;;;7.40;3.50;;;12.30;99.90;;;;;;5051004;28;20083;-73
2023/05/18 03:40:13;;;;;;;7.18;3.38;;;12.30;99.90;;;;;;5051216;28;20028;-72
2023/05/18 03:42:42;;;;;;;7.15;3.10;;;12.30;99.90;;;;;;5051153;28;20025;-72
2023/05/18 03:45:09;;;;;;;6.57;3.85;;;12.30;99.90;;;;;;5051142;28;20037;-72
2023/05/18 03:47:36;;;;;;;6.53;3.30;;;12.40;99.90;;;;;;5051255;28;20024;-73
2023/05/18 03:50:04;;;;;;;6.75;2.90;;;12.30;99.90;;;;;;5050872;28;20151;-72
2023/05/18 03:52:33;;;;;;;11.73;3.70;;;12.30;99.90;;;;;;5050932;28;20028;-72
2023/05/18 03:55:00;;;;;;;6.68;3.10;;;12.30;99.90;;;;;;5050735;28;20017;-74
2023/05/18 03:57:27;;;;;;;8.52;3.80;;;12.30;99.90;;;;;;5033167;28;20032;-73
2023/05/18 03:59:54;;;;;;;8.65;3.45;;;12.30;99.90;;;;;;5050798;28;20032;-72
2023/05/18 04:02:20;;;;;;;7.13;3.10;;;12.20;99.90;;;;;;5050342;28;20028;-72
2023/05/18 04:04:46;;;;;;;8.85;3.65;;;12.30;99.90;;;;;;5050969;28;20029;-72
2023/05/18 04:07:15;;;;;;;6.63;3.63;;;12.30;99.90;;;;;;5050455;28;20017;-73
2023/05/18 04:09:42;;;;;;;6.30;3.10;;;12.20;99.90;;;;;;5050687;28;20041;-72
2023/05/18 04:12:08;;;;;;;7.03;3.22;;;12.20;99.90;;;;;;5050867;28;20430;-72
2023/05/18 04:14:34;;;;;;;8.27;3.65;;;12.20;99.90;;;;;;5050521;28;20425;-72
2023/05/18 04:17:06;;;;;;;8.93;3.67;;;12.30;99.90;;;;;;5050815;28;20028;-72
2023/05/18 04:19:33;;;;;;;8.48;3.13;;;12.20;99.90;;;;;;5050769;28;20166;-72
2023/05/18 04:21:59;;;;;;;6.28;3.20;;;12.20;99.90;;;;;;5050993;28;20029;-72
2023/05/18 04:24:25;;;;;;;6.22;3.47;;;12.10;99.90;;;;;;5051114;28;20052;-72
2023/05/18 04:26:52;;;;;;;6.68;3.10;;;12.10;99.90;;;;;;5050965;28;20099;-72
2023/05/18 04:29:18;;;;;;;8.73;3.72;;;12.10;99.90;;;;;;5050166;28;20157;-72
2023/05/18 04:31:46;;;;;;;7.10;3.17;;;12.10;99.90;;;;;;5050904;28;20052;-73
2023/05/18 04:34:12;;;;;;;7.78;3.83;;;12.10;99.90;;;;;;5050379;28;20021;-73
2023/05/18 04:36:41;;;;;;;7.72;3.55;;;12.10;99.90;;;;;;5050548;28;20025;-72
2023/05/18 04:39:08;;;;;;;10.07;3.75;;;12.10;99.90;;;;;;5050443;28;20033;-72
2023/05/18 04:41:34;;;;;;;8.05;2.92;;;12.00;99.90;;;;;;5050230;28;20052;-72
2023/05/18 04:44:00;;;;;;;6.32;3.13;;;12.00;99.90;;;;;;5050850;28;20029;-72
2023/05/18 04:46:27;;;;;;;9.50;3.17;;;12.00;99.90;;;;;;5050143;28;20112;-73
2023/05/18 04:48:56;;;;;;;6.28;3.42;;;12.00;99.90;;;;;;5050447;28;20036;-72
2023/05/18 04:51:23;;;;;;;9.80;3.40;;;12.00;99.90;;;;;;5050080;28;20055;-72
2023/05/18 04:53:49;;;;;;;8.73;3.25;;;12.00;99.90;;;;;;5050440;28;20038;-72
2023/05/18 04:56:16;;;;;;;7.80;3.00;;;12.00;99.90;;;;;;5050260;28;20025;-72
2023/05/18 04:58:46;;;;;;;6.95;3.38;;;12.00;99.90;;;;;;5050217;28;20070;-72
2023/05/18 05:01:14;;;;;;;11.68;3.30;;;12.00;99.90;;;;;;5050141;28;20036;-73
2023/05/18 05:03:41;;;;;;;8.00;3.30;;;12.00;99.90;;;;;;5050294;28;20029;-72
2023/05/18 05:06:07;;;;;;;9.35;3.50;;;12.00;99.90;;;;;;5051171;28;20419;-72
2023/05/18 05:08:33;;;;;;;8.73;3.33;;;12.00;99.90;;;;;;5053449;28;20033;-72
2023/05/18 05:11:00;;;;;;;9.02;3.60;;;12.10;99.90;;;;;;5054009;28;20398;-72
2023/05/18 05:13:26;;;;;;;8.73;3.38;;;12.10;99.90;;;;;;5053858;28;20132;-72
2023/05/18 05:15:52;;;;;;;8.73;3.47;;;12.10;99.90;;;;;;5054261;28;20091;-72
2023/05/18 05:18:17;;;;;;;8.93;3.90;;;12.10;99.90;;;;;;5053805;28;20129;-72
2023/05/18 05:20:43;;;;;;;4.40;3.03;;;12.20;99.90;;;;;;5054178;28;20025;-72
2023/05/18 05:23:09;;;;;;;9.38;3.05;;;12.20;99.90;;;;;;5054495;28;20370;-72
2023/05/18 05:25:34;;;;;;;8.02;3.13;;;12.20;99.90;;;;;;5053805;28;20466;-73
2023/05/18 05:28:00;;;;;;;5.32;3.08;;;12.30;99.90;;;;;;5053995;28;20016;-72
2023/05/18 05:30:26;;;;;;;6.35;3.08;;;12.30;99.90;;;;;;5053480;28;20499;-73
2023/05/18 05:32:52;;;;;;;5.70;3.00;;;12.30;99.90;;;;;;5054336;28;20152;-73
2023/05/18 05:35:17;;;;;;;9.25;3.67;;;12.40;99.90;;;;;;5053304;28;20354;-73
2023/05/18 05:37:43;;;;;;;8.13;3.30;;;12.50;99.90;;;;;;5054037;28;20048;-73
2023/05/18 05:40:09;;;;;;;6.18;2.95;;;12.50;99.90;;;;;;5053898;28;20060;-73
2023/05/18 05:42:35;;;;;;;6.35;2.95;;;12.50;99.90;;;;;;5053663;28;20140;-72
2023/05/18 05:45:01;;;;;;;8.02;3.22;;;12.50;99.90;;;;;;5053600;28;20469;-72
2023/05/18 05:47:27;;;;;;;7.13;3.00;;;12.50;99.90;;;;;;5053128;28;20025;-72
2023/05/18 05:49:53;;;;;;;6.05;2.78;;;12.50;99.90;;;;;;5053408;28;20470;-72
2023/05/18 05:52:19;;;;;;;7.63;2.60;;;12.60;99.90;;;;;;5052937;28;20151;-73
2023/05/18 05:54:45;;;;;;;6.10;2.90;;;12.60;99.90;;;;;;5053289;28;20124;-73
2023/05/18 05:57:11;;;;;;;7.18;3.17;;;12.60;99.90;;;;;;5053401;28;20035;-72
2023/05/18 05:59:36;;;;;;;7.25;2.92;;;12.60;99.90;;;;;;5053251;28;20032;-73
2023/05/18 06:02:02;;;;;;;6.85;2.80;;;12.60;99.90;;;;;;5053122;28;20025;-73
2023/05/18 06:04:28;;;;;;;6.25;2.72;;;12.60;99.90;;;;;;5052681;28;20021;-73
2023/05/18 06:06:54;;;;;;;6.15;3.10;;;12.60;99.90;;;;;;5052750;28;20029;-73
2023/05/18 06:09:19;;;;;;;6.68;2.63;;;12.70;99.90;;;;;;5052358;28;20037;-73
2023/05/18 06:11:45;;;;;;;5.50;2.55;;;12.70;99.90;;;;;;5053082;28;20102;-73
2023/05/18 06:14:11;;;;;;;5.90;2.15;;;12.80;99.90;;;;;;5052872;28;20433;-73
2023/05/18 06:16:37;;;;;;;4.72;2.10;;;12.80;99.90;;;;;;5052600;28;20546;-73
2023/05/18 06:19:02;;;;;;;7.25;3.50;;;12.80;99.90;;;;;;5052569;28;20055;-73
2023/05/18 06:21:28;;;;;;;7.75;2.90;;;12.90;99.90;;;;;;5052643;28;20025;-72
2023/05/18 06:23:55;;;;;;;8.30;2.58;;;12.90;99.90;;;;;;5052440;28;20064;-71
2023/05/18 06:26:21;;;;;;;7.28;2.58;;;12.90;99.90;;;;;;5052053;28;20029;-72
2023/05/18 06:28:47;;;;;;;6.57;2.38;;;12.90;99.90;;;;;;5052416;28;20079;-72
2023/05/18 06:31:14;;;;;;;5.00;1.85;;;13.00;99.90;;;;;;5052527;28;20116;-72
2023/05/18 06:33:40;;;;;;;11.13;2.58;;;13.00;99.90;;;;;;5051874;28;20127;-72
2023/05/18 06:36:06;;;;;;;8.60;2.55;;;13.10;99.90;;;;;;5052281;28;20421;-72
2023/05/18 06:38:32;;;;;;;8.13;2.42;;;13.10;99.90;;;;;;5051819;28;20029;-73
2023/05/18 06:40:57;;;;;;;6.57;2.42;;;13.10;99.90;;;;;;5052057;28;20021;-72
2023/05/18 06:43:27;;;;;;;13.45;3.13;;;13.10;99.90;;;;;;5051837;28;20098;-73
2023/05/18 06:45:53;;;;;;;5.80;2.38;;;13.10;99.90;;;;;;5051976;28;20025;-72
2023/05/18 06:48:20;;;;;;;5.38;2.45;;;13.10;99.90;;;;;;5051625;28;20037;-73
2023/05/18 06:50:45;;;;;;;6.65;2.67;;;13.10;99.90;;;;;;5052211;28;20048;-72
2023/05/18 06:53:12;;;;;;;9.55;2.47;;;13.20;99.90;;;;;;5052051;28;20474;-72
2023/05/18 06:55:38;;;;;;;5.63;2.30;;;13.30;99.90;;;;;;5051719;28;20439;-72
2023/05/18 06:58:03;;;;;;;7.63;2.25;;;13.40;99.90;;;;;;5051741;28;20021;-71
2023/05/18 07:00:29;;;;;;;5.68;2.30;;;13.30;99.90;;;;;;5051179;28;20112;-72
2023/05/18 07:02:55;;;;;;;5.32;2.42;;;13.40;99.90;;;;;;5051793;28;20472;-71
2023/05/18 07:05:22;;;;;;;6.65;2.33;;;13.40;99.90;;;;;;5051499;28;20029;-73
2023/05/18 07:07:48;;;;;;;5.10;2.55;;;13.40;99.90;;;;;;5051464;28;20584;-72
2023/05/18 07:10:13;;;;;;;7.90;2.35;;;13.50;99.90;;;;;;5051757;28;20116;-72
2023/05/18 07:12:39;;;;;;;6.00;2.30;;;13.50;99.90;;;;;;5051530;28;20372;-72
2023/05/18 07:15:06;;;;;;;5.20;2.40;;;13.50;99.90;;;;;;5051567;28;20032;-72
2023/05/18 07:17:32;;;;;;;6.18;2.47;;;13.60;99.90;;;;;;5051147;28;20043;-73
2023/05/18 07:19:58;;;;;;;8.80;2.92;;;13.70;99.90;;;;;;5051450;28;20112;-72
2023/05/18 07:22:23;;;;;;;6.50;2.67;;;13.70;99.90;;;;;;5050877;28;20079;-72
2023/05/18 07:24:49;;;;;;;7.07;2.90;;;13.80;99.90;;;;;;5050611;28;20059;-72
2023/05/18 07:27:15;;;;;;;5.18;2.80;;;13.80;99.90;;;;;;5051085;28;20048;-72
2023/05/18 07:29:41;;;;;;;9.55;2.83;;;13.80;99.90;;;;;;5049876;28;20371;-73
2023/05/18 07:32:06;;;;;;;8.00;2.45;;;13.90;99.90;;;;;;5051416;28;20422;-73
2023/05/18 07:34:32;;;;;;;6.03;2.20;;;13.90;99.90;;;;;;5050890;28;20428;-73
2023/05/18 07:36:58;;;;;;;6.30;2.53;;;13.90;99.90;;;;;;5051278;28;20036;-72
2023/05/18 07:39:27;;;;;;;4.75;2.22;;;14.00;99.90;;;;;;5050638;28;20044;-73
2023/05/18 07:41:54;;;;;;;5.57;2.42;;;14.00;99.90;;;;;;5051149;28;20459;-73
2023/05/18 07:44:20;;;;;;;8.40;2.80;;;14.00;99.90;;;;;;5051376;28;20419;-72
2023/05/18 07:46:45;;;;;;;5.20;2.40;;;14.20;99.90;;;;;;5051210;28;20047;-72
2023/05/18 07:49:11;;;;;;;8.32;2.47;;;14.20;99.90;;;;;;5051106;28;20032;-72
2023/05/18 07:51:37;;;;;;;9.15;2.88;;;14.10;99.90;;;;;;5050700;28;20112;-72
2023/05/18 07:54:04;;;;;;;6.28;2.35;;;14.10;99.90;;;;;;5050817;28;20075;-73
2023/05/18 07:56:30;;;;;;;3.00;1.85;;;14.00;99.90;;;;;;5050207;28;20033;-73
2023/05/18 07:58:56;;;;;;;4.68;2.20;;;14.00;99.90;;;;;;5050888;28;20086;-73
2023/05/18 08:01:26;;;;;;;4.18;2.00;;;14.00;99.90;;;;;;5050681;28;20013;-73
2023/05/18 08:03:52;;;;;;;7.20;2.50;;;14.10;99.90;;;;;;5032658;28;20083;-73
2023/05/18 08:06:18;;;;;;;4.30;2.03;;;14.20;99.90;;;;;;5050583;28;20035;-72
2023/05/18 08:08:44;;;;;;;3.92;1.80;;;14.30;99.90;;;;;;5050616;28;20037;-73
2023/05/18 08:11:10;;;;;;;4.60;1.60;;;14.20;99.90;;;;;;5051360;28;20451;-73
2023/05/18 08:13:35;;;;;;;5.38;1.95;;;14.30;99.90;;;;;;5050755;28;20029;-73
2023/05/18 08:16:01;;;;;;;4.15;2.22;;;14.20;99.90;;;;;;5050855;28;20402;-72
2023/05/18 08:18:27;;;;;;;9.25;2.75;;;14.30;99.90;;;;;;5050669;28;20033;-73
2023/05/18 08:20:52;;;;;;;6.75;2.47;;;14.20;99.90;;;;;;5050187;28;20121;-72
2023/05/18 08:23:18;;;;;;;5.05;1.80;;;14.30;99.90;;;;;;5050482;28;20032;-72
2023/05/18 08:25:44;;;;;;;7.60;2.80;;;14.30;99.90;;;;;;5050171;28;20370;-72
2023/05/18 08:28:10;;;;;;;5.22;2.00;;;14.40;99.90;;;;;;5050725;28;20120;-73
2023/05/18 08:30:36;;;;;;;6.80;1.90;;;14.50;99.90;;;;;;5050222;28;20434;-73
2023/05/18 08:33:02;;;;;;;4.50;2.20;;;14.70;99.90;;;;;;5050589;28;20029;-72
2023/05/18 08:35:28;;;;;;;4.10;1.90;;;14.90;99.90;;;;;;5032451;28;20057;-74
2023/05/18 08:37:53;;;;;;;3.80;2.30;;;14.90;99.90;;;;;;5050461;28;20381;-74
2023/05/18 08:40:19;;;;;;;5.88;2.08;;;15.10;99.90;;;;;;5051810;28;20029;-73
2023/05/18 08:42:57;;;;;;;4.50;2.35;;;15.30;99.90;;;;;;5054512;28;20318;-73
2023/05/18 08:45:36;;;;;;;4.15;2.20;;;15.50;99.90;;;;;;5054901;28;20033;-72
2023/05/18 08:48:03;;;;;;;5.55;2.38;;;15.70;99.90;;;;;;5054739;28;20112;-73
2023/05/18 08:50:31;;;;;;;4.75;2.00;;;16.00;99.90;;;;;;5054143;28;20067;-72
2023/05/18 08:53:00;;;;;;;5.82;2.38;;;16.20;99.90;;;;;;5054488;28;20033;-73
2023/05/18 08:55:27;;;;;;;5.15;2.10;;;16.30;99.90;;;;;;5054217;28;20069;-73
2023/05/18 08:57:56;;;;;;;3.47;2.58;;;16.40;99.90;;;;;;5054469;28;20021;-72
2023/05/18 09:00:23;;;;;;;3.67;1.88;;;16.40;99.90;;;;;;5054180;28;20048;-73
2023/05/18 09:02:49;;;;;;;5.97;2.05;;;16.50;99.90;;;;;;5054017;28;20059;-73
2023/05/18 09:05:16;;;;;;;7.25;2.13;;;16.50;99.90;;;;;;5054376;28;20071;-73
2023/05/18 09:07:43;;;;;;;6.60;2.13;;;16.50;99.90;;;;;;5053865;28;20021;-72
2023/05/18 09:10:10;;;;;;;5.30;1.95;;;16.50;99.90;;;;;;5054285;28;20133;-74
2023/05/18 09:12:37;;;;;;;5.18;2.15;;;16.50;99.90;;;;;;5053719;28;20062;-71
2023/05/18 09:15:03;;;;;;;5.45;2.03;;;16.60;99.90;;;;;;5053860;28;20327;-71
2023/05/18 09:17:29;;;;;;;4.20;2.22;;;16.60;99.90;;;;;;5053525;28;20193;-72
2023/05/18 09:19:55;;;;;;;5.60;1.92;;;16.60;99.90;;;;;;5054132;28;20442;-72
2023/05/18 09:22:21;;;;;;;5.25;2.10;;;16.60;99.90;;;;;;5053846;28;20106;-71
2023/05/18 09:24:47;;;;;;;4.75;1.90;;;16.60;99.90;;;;;;5053616;28;20033;-72
2023/05/18 09:27:13;;;;;;;5.68;1.75;;;16.60;99.90;;;;;;5053633;28;20048;-72
2023/05/18 09:29:53;;;;;;;4.35;1.90;;;16.60;99.90;;;;;;5052971;28;20111;-71
2023/05/18 09:32:19;;;;;;;6.95;2.28;;;16.60;99.90;;;;;;5053690;28;20036;-72
2023/05/18 09:34:47;;;;;;;5.18;2.00;;;16.30;99.90;;;;;;5053287;28;20036;-72
2023/05/18 09:37:16;;;;;;;4.95;2.13;;;16.10;99.90;;;;;;5053452;28;20017;-71
2023/05/18 09:39:41;;;;;;;7.22;2.42;;;16.00;99.90;;;;;;5053140;28;20116;-72
2023/05/18 09:42:07;;;;;;;4.10;2.10;;;16.00;99.90;;;;;;5053531;28;20071;-72
2023/05/18 09:44:33;;;;;;;5.95;2.13;;;16.00;99.90;;;;;;5052771;28;20052;-72
2023/05/18 09:47:00;;;;;;;5.30;2.28;;;16.20;99.90;;;;;;5052893;28;20465;-72
2023/05/18 09:49:28;;;;;;;4.93;1.90;;;16.30;99.90;;;;;;5053091;28;20450;-72
2023/05/18 09:51:55;;;;;;;2.63;1.83;;;16.40;99.90;;;;;;5051684;28;20047;-73
2023/05/18 09:54:21;;;;;;;4.68;2.10;;;16.50;99.90;;;;;;5053331;28;20031;-73
2023/05/18 09:56:48;;;;;;;4.53;1.80;;;16.70;99.90;;;;;;5053367;28;20103;-73
2023/05/18 09:59:15;;;;;;;3.67;1.98;;;16.80;99.90;;;;;;5053263;28;20442;-73
2023/05/18 10:02:01;;;;;;;4.57;2.00;;;16.70;99.90;;;;;;5052905;28;20090;-72
2023/05/18 10:04:42;;;;;;;5.30;2.05;;;16.80;99.90;;;;;;5053261;28;20029;-72
2023/05/18 10:07:10;;;;;;;7.85;1.80;;;16.70;99.90;;;;;;5052850;28;20425;-73
2023/05/18 10:09:36;;;;;;;5.20;1.95;;;16.50;99.90;;;;;;5052630;28;20033;-73
2023/05/18 10:12:02;;;;;;;3.85;1.73;;;16.30;99.90;;;;;;5052885;28;20028;-73
2023/05/18 10:14:35;;;;;;;7.25;1.70;;;16.30;99.90;;;;;;5052526;28;20101;-72
2023/05/18 10:17:03;;;;;;;6.95;2.20;;;16.50;99.90;;;;;;5052583;28;20094;-73
2023/05/18 10:19:33;;;;;;;2.95;1.50;;;16.60;99.90;;;;;;5052413;28;20033;-71
2023/05/18 10:22:01;;;;;;;4.60;1.98;;;16.50;99.90;;;;;;5052284;28;20020;-72
2023/05/18 10:24:28;;;;;;;5.47;1.75;;;16.60;99.90;;;;;;5052225;28;20029;-73
2023/05/18 10:27:00;;;;;;;7.78;1.80;;;16.80;99.90;;;;;;5051663;28;20386;-72
2023/05/18 10:29:27;;;;;;;5.53;1.83;;;16.80;99.90;;;;;;5052024;28;20444;-72
2023/05/18 10:31:54;;;;;;;5.25;2.00;;;16.90;99.90;;;;;;5052111;28;20106;-72
2023/05/18 10:34:23;;;;;;;4.38;2.00;;;16.90;99.90;;;;;;5051826;28;20036;-72
2023/05/18 10:36:49;;;;;;;5.22;2.33;;;17.00;99.90;;;;;;5051769;28;20029;-72
2023/05/18 10:39:16;;;;;;;4.57;1.75;;;17.20;99.90;;;;;;5052167;28;20039;-72
2023/05/18 10:41:44;;;;;;;13.23;2.72;;;17.30;99.90;;;;;;5051733;28;20032;-72
2023/05/18 10:44:10;;;;;;;5.55;2.33;;;17.30;99.90;;;;;;5052049;28;20033;-72
2023/05/18 10:46:37;;;;;;;2.92;1.52;;;17.40;99.90;;;;;;5051469;28;20330;-72
2023/05/18 10:49:04;;;;;;;5.07;2.10;;;17.40;99.90;;;;;;5051592;28;20120;-71
2023/05/18 10:51:31;;;;;;;8.77;2.22;;;17.40;99.90;;;;;;5052334;28;20478;-71
2023/05/18 10:54:12;;;;;;;4.32;2.22;;;17.50;99.90;;;;;;5052823;28;20032;-71
2023/05/18 10:56:43;;;;;;;6.03;2.13;;;17.60;99.90;;;;;;5052714;28;20033;-72
2023/05/18 10:59:11;;;;;;;7.43;1.95;;;17.80;99.90;;;;;;5053231;28;20040;-71
2023/05/18 11:01:40;;;;;;;3.78;1.83;;;17.80;99.90;;;;;;5052681;28;20021;-72
2023/05/18 11:04:06;;;;;;;6.75;2.28;;;17.90;99.90;;;;;;5052004;28;20056;-72
2023/05/18 11:06:34;;;;;;;5.90;2.25;;;17.90;99.90;;;;;;5052920;28;20036;-74
2023/05/18 11:09:00;;;;;;;3.78;2.00;;;17.80;99.90;;;;;;5052491;28;20029;-73
2023/05/18 11:11:30;;;;;;;4.72;2.10;;;17.70;99.90;;;;;;5052674;28;20489;-72
2023/05/18 11:14:00;;;;;;;4.05;2.13;;;17.50;99.90;;;;;;5052313;28;20025;-73
2023/05/18 11:16:34;;;;;;;5.50;2.33;;;17.50;99.90;;;;;;5053023;28;20486;-73
2023/05/18 11:19:11;;;;;;;5.43;2.35;;;17.60;99.90;;;;;;5052491;28;20124;-72
2023/05/18 11:21:40;;;;;;;6.65;2.40;;;17.50;99.90;;;;;;5050698;28;20483;-74
2023/05/18 11:24:24;;;;;;;3.58;1.92;;;17.50;99.90;;;;;;5051531;28;20075;-73
2023/05/18 11:27:18;;;;;;;3.95;2.28;;;17.80;99.90;;;;;;5068137;28;20449;-72
2023/05/18 11:29:45;;;;;;;5.47;2.45;;;18.20;99.90;;;;;;5067270;28;20087;-73
2023/05/18 11:32:32;;;;;;;5.65;2.22;;;18.50;99.90;;;;;;5067872;28;20102;-73
2023/05/18 11:34:58;;;;;;;2.67;1.60;;;18.50;99.90;;;;;;5067246;28;20478;-72
2023/05/18 11:37:40;;;;;;;8.15;2.58;;;18.60;99.90;;;;;;5067414;28;20147;-72
2023/05/18 11:40:10;;;;;;;5.18;2.35;;;18.60;99.90;;;;;;5067707;28;20040;-72
2023/05/18 11:42:36;;;;;;;3.60;2.13;;;18.50;99.90;;;;;;5067339;28;20043;-73
2023/05/18 11:45:09;;;;;;;5.20;2.42;;;18.20;99.90;;;;;;5067407;28;20029;-73
2023/05/18 11:47:38;;;;;;;3.97;2.17;;;18.30;99.90;;;;;;5067689;28;20059;-72
2023/05/18 11:50:13;;;;;;;7.53;2.70;;;18.10;99.90;;;;;;5067518;28;20131;-73
2023/05/18 11:52:47;;;;;;;5.90;2.70;;;18.20;99.90;;;;;;5067116;28;20471;-73
2023/05/18 11:55:15;;;;;;;2.80;1.92;;;18.20;99.90;;;;;;5067218;28;20067;-72
2023/05/18 11:57:44;;;;;;;5.68;2.63;;;18.20;99.90;;;;;;5067132;28;20052;-73
2023/05/18 12:00:11;;;;;;;4.18;2.22;;;18.10;99.90;;;;;;5066480;28;20446;-73
2023/05/18 12:02:37;;;;;;;5.82;2.65;;;18.20;99.90;;;;;;5067558;28;20322;-74
2023/05/18 12:05:08;;;;;;;5.47;2.50;;;18.30;99.90;;;;;;5067933;28;20039;-73
2023/05/18 12:07:35;;;;;;;6.50;3.03;;;18.20;99.90;;;;;;5067279;28;20055;-72
2023/05/18 12:10:03;;;;;;;6.70;2.67;;;18.40;99.90;;;;;;5066706;28;20033;-72
2023/05/18 12:12:29;;;;;;;4.00;2.60;;;18.70;99.90;;;;;;5067096;28;20036;-75
2023/05/18 12:14:57;;;;;;;7.53;2.78;;;18.90;99.90;;;;;;5065351;28;20326;-73
2023/05/18 12:17:39;;;;;;;7.18;2.45;;;18.90;99.90;;;;;;5067152;28;20051;-72
2023/05/18 12:20:29;;;;;;;4.40;2.17;;;19.00;99.90;;;;;;5066893;28;20499;-72
2023/05/18 12:22:56;;;;;;;3.40;2.42;;;19.20;99.90;;;;;;5066356;28;20120;-73
2023/05/18 12:25:23;;;;;;;5.28;2.88;;;19.30;99.90;;;;;;5066834;28;20207;-73
2023/05/18 12:27:51;;;;;;;2.92;2.38;;;19.30;99.90;;;;;;5066199;28;20029;-73
2023/05/18 12:30:19;;;;;;;6.05;2.40;;;19.30;99.90;;;;;;5066652;28;20133;-72
2023/05/18 12:32:49;;;;;;;4.53;2.40;;;19.30;99.90;;;;;;5066041;28;20035;-72
2023/05/18 12:35:16;;;;;;;6.50;2.80;;;19.40;99.90;;;;;;5066593;28;20168;-73
2023/05/18 12:37:45;;;;;;;5.65;2.55;;;19.40;99.90;;;;;;5056436;28;20032;-74
2023/05/18 12:40:13;;;;;;;3.58;2.10;;;19.30;99.90;;;;;;5053285;28;20025;-72
2023/05/18 12:42:39;;;;;;;4.55;2.30;;;19.20;99.90;;;;;;5053019;28;20032;-72
2023/05/18 12:45:06;;;;;;;10.63;5.28;;;19.20;99.90;;;;;;5052614;28;20121;-73
2023/05/18 12:47:39;;;;;;;16.65;7.22;;;19.10;99.90;;;;;;5053109;28;20111;-73
2023/05/18 12:50:05;;;;;;;7.78;4.53;;;19.20;99.90;;;;;;5052691;28;20025;-73